createdAt,value
2019-03-24T00:01:41.153Z,5.90
2019-03-24T00:04:03.645Z,6.42
2019-03-24T00:06:31.502Z,5.10
2019-03-24T00:08:59.458Z,6.57
2019-03-24T00:11:27.415Z,8.33
2019-03-24T00:13:55.427Z,6.53
2019-03-24T00:16:23.386Z,6.93
2019-03-24T00:18:51.517Z,9.03
2019-03-24T00:21:19.560Z,6.80
2019-03-24T00:23:47.450Z,6.50
2019-03-24T00:26:15.577Z,8.97
2019-03-24T00:28:43.554Z,7.80
2019-03-24T00:31:11.534Z,7.97
2019-03-24T00:33:39.445Z,6.27
2019-03-24T00:36:10.678Z,7.53
2019-03-24T00:38:38.739Z,7.17
2019-03-24T00:41:09.101Z,8.10
2019-03-24T00:43:38.310Z,8.20
2019-03-24T00:46:06.983Z,8.63
2019-03-24T00:48:34.894Z,7.40
2019-03-24T00:51:03.145Z,7.83
2019-03-24T00:53:31.274Z,7.10
2019-03-24T00:55:59.257Z,8.80
2019-03-24T00:58:27.174Z,8.17
2019-03-24T01:00:55.231Z,6.50
2019-03-24T01:03:24.031Z,7.40
2019-03-24T01:05:52.052Z,7.53
2019-03-24T01:08:20.191Z,7.50
2019-03-24T01:10:48.170Z,8.07
2019-03-24T01:13:16.119Z,9.17
2019-03-24T01:15:47.980Z,6.70
2019-03-24T01:18:15.362Z,5.90
2019-03-24T01:20:43.383Z,7.20
2019-03-24T01:23:11.314Z,7.20
2019-03-24T01:25:39.358Z,5.73
2019-03-24T01:28:07.348Z,6.60
2019-03-24T01:30:35.360Z,7.33
2019-03-24T01:33:03.322Z,6.57
2019-03-24T01:35:31.189Z,7.53
2019-03-24T01:37:59.052Z,8.43
2019-03-24T01:40:27.014Z,7.70
2019-03-24T01:42:55.349Z,6.40
2019-03-24T01:45:24.374Z,9.13
2019-03-24T01:47:52.514Z,8.50
2019-03-24T01:50:20.345Z,8.95
2019-03-24T01:52:48.498Z,9.93
2019-03-24T01:55:16.444Z,6.00
2019-03-24T01:57:44.540Z,7.27
2019-03-24T02:00:12.795Z,5.77
2019-03-24T02:02:40.826Z,7.47
2019-03-24T02:05:08.685Z,6.87
2019-03-24T02:07:36.687Z,6.30
2019-03-24T02:10:04.863Z,6.43
2019-03-24T02:12:32.858Z,7.80
2019-03-24T02:15:00.776Z,7.47
2019-03-24T02:17:28.757Z,5.80
2019-03-24T02:19:56.636Z,7.17
2019-03-24T02:22:24.837Z,8.10
2019-03-24T02:24:52.968Z,7.80
2019-03-24T02:27:20.983Z,6.60
2019-03-24T02:29:49.118Z,7.07
2019-03-24T02:32:16.951Z,7.70
2019-03-24T02:34:44.828Z,7.47
2019-03-24T02:37:14.689Z,6.20
2019-03-24T02:39:42.630Z,6.67
2019-03-24T02:42:10.579Z,6.43
2019-03-24T02:44:38.583Z,8.40
2019-03-24T02:47:06.534Z,6.53
2019-03-24T02:49:34.677Z,7.73
2019-03-24T02:52:02.622Z,7.50
2019-03-24T02:54:30.718Z,6.20
2019-03-24T02:56:58.960Z,6.67
2019-03-24T02:59:29.736Z,8.13
2019-03-24T03:01:57.905Z,8.17
2019-03-24T03:04:25.941Z,6.50
2019-03-24T03:06:54.115Z,8.27
2019-03-24T03:09:22.117Z,7.30
2019-03-24T03:11:50.707Z,7.10
2019-03-24T03:14:18.660Z,8.70
2019-03-24T03:16:53.779Z,6.53
2019-03-24T03:19:21.939Z,6.67
2019-03-24T03:21:50.255Z,6.63
2019-03-24T03:24:19.380Z,7.47
2019-03-24T03:26:49.726Z,7.70
2019-03-24T03:29:17.852Z,6.63
2019-03-24T03:31:46.647Z,7.20
2019-03-24T03:34:14.987Z,6.80
2019-03-24T03:36:43.016Z,6.50
2019-03-24T03:39:10.903Z,6.47
2019-03-24T03:41:38.878Z,7.20
2019-03-24T03:44:06.919Z,6.33
2019-03-24T03:46:34.880Z,7.73
2019-03-24T03:49:02.812Z,6.73
2019-03-24T03:51:30.782Z,7.23
2019-03-24T03:53:59.217Z,8.10
2019-03-24T03:56:27.508Z,7.77
2019-03-24T03:58:55.431Z,8.78
2019-03-24T04:01:23.478Z,8.43
2019-03-24T04:03:51.933Z,9.80
2019-03-24T04:06:19.947Z,9.17
2019-03-24T04:08:50.430Z,8.40
2019-03-24T04:11:19.440Z,7.53
2019-03-24T04:13:47.770Z,7.67
2019-03-24T04:16:15.701Z,7.60
2019-03-24T04:18:43.637Z,8.67
2019-03-24T04:21:11.706Z,7.80
2019-03-24T04:23:39.801Z,7.77
2019-03-24T04:26:09.817Z,7.97
2019-03-24T04:28:37.815Z,7.47
2019-03-24T04:31:05.700Z,7.93
2019-03-24T04:33:33.743Z,7.83
2019-03-24T04:36:01.789Z,7.23
2019-03-24T04:38:29.882Z,6.63
2019-03-24T04:40:57.961Z,7.30
2019-03-24T04:43:26.030Z,7.10
2019-03-24T04:45:53.969Z,8.43
2019-03-24T04:48:21.829Z,7.90
2019-03-24T04:50:51.084Z,6.93
2019-03-24T04:53:20.787Z,7.03
2019-03-24T04:55:48.742Z,8.00
2019-03-24T04:58:16.583Z,7.77
2019-03-24T05:00:44.646Z,6.97
2019-03-24T05:03:12.766Z,7.33
2019-03-24T05:05:41.030Z,7.03
2019-03-24T05:08:11.405Z,7.10
2019-03-24T05:10:39.485Z,9.00
2019-03-24T05:13:07.410Z,7.10
2019-03-24T05:15:35.363Z,8.00
2019-03-24T05:18:03.298Z,7.47
2019-03-24T05:20:31.209Z,6.10
2019-03-24T05:22:59.174Z,8.50
2019-03-24T05:25:27.446Z,8.27
2019-03-24T05:27:55.492Z,6.73
2019-03-24T05:30:23.562Z,8.17
2019-03-24T05:32:52.896Z,7.50
2019-03-24T05:35:20.758Z,17.30
2019-03-24T05:37:48.702Z,10.90
2019-03-24T05:40:16.587Z,13.47
2019-03-24T05:42:44.575Z,14.30
2019-03-24T05:45:14.049Z,15.40
2019-03-24T05:47:42.089Z,12.47
2019-03-24T05:50:12.665Z,15.27
2019-03-24T05:52:40.687Z,12.90
2019-03-24T05:55:09.074Z,13.03
2019-03-24T05:57:37.048Z,12.70
2019-03-24T06:00:06.042Z,12.47
2019-03-24T06:02:34.143Z,14.97
2019-03-24T06:05:02.165Z,12.50
2019-03-24T06:07:30.134Z,12.37
2019-03-24T06:09:58.178Z,14.40
2019-03-24T06:12:26.174Z,16.12
2019-03-24T06:14:54.527Z,15.83
2019-03-24T06:17:22.662Z,14.85
2019-03-24T06:19:53.436Z,15.17
2019-03-24T06:22:21.686Z,12.40
2019-03-24T06:24:51.071Z,12.77
2019-03-24T06:27:19.266Z,14.97
2019-03-24T06:29:49.279Z,13.67
2019-03-24T06:32:36.773Z,15.53
2019-03-24T06:35:05.346Z,14.37
2019-03-24T06:37:33.785Z,14.37
2019-03-24T06:40:01.908Z,14.17
2019-03-24T06:42:31.938Z,14.50
2019-03-24T06:45:00.776Z,12.63
2019-03-24T06:47:29.420Z,12.30
2019-03-24T06:49:57.579Z,11.43
2019-03-24T06:52:25.718Z,10.80
2019-03-24T06:54:53.657Z,11.73
2019-03-24T06:57:21.746Z,9.30
2019-03-24T06:59:51.656Z,11.30
2019-03-24T07:02:19.515Z,8.30
2019-03-24T07:04:48.796Z,9.33
2019-03-24T07:07:19.382Z,9.00
2019-03-24T07:09:48.968Z,10.07
2019-03-24T07:12:17.749Z,10.27
2019-03-24T07:14:51.413Z,9.03
2019-03-24T07:17:19.666Z,8.73
2019-03-24T07:19:50.289Z,8.20
2019-03-24T07:22:19.805Z,8.87
2019-03-24T07:24:53.566Z,9.20
2019-03-24T07:27:21.615Z,7.37
2019-03-24T07:29:49.557Z,7.17
2019-03-24T07:32:17.897Z,5.37
2019-03-24T07:34:46.566Z,7.67
2019-03-24T07:37:14.653Z,6.20
2019-03-24T07:39:42.760Z,4.60
2019-03-24T07:42:10.868Z,6.27
2019-03-24T07:44:38.758Z,5.33
2019-03-24T07:47:12.333Z,5.90
2019-03-24T07:49:40.520Z,4.80
2019-03-24T07:52:11.065Z,5.60
2019-03-24T07:54:39.003Z,5.43
2019-03-24T07:57:07.101Z,6.37
2019-03-24T07:59:35.424Z,4.90
2019-03-24T08:02:03.394Z,6.10
2019-03-24T08:04:31.315Z,5.17
2019-03-24T08:06:59.323Z,5.23
2019-03-24T08:09:27.191Z,6.93
2019-03-24T08:11:55.244Z,4.83
2019-03-24T08:14:23.387Z,5.90
2019-03-24T08:16:53.762Z,5.03
2019-03-24T08:19:22.125Z,5.60
2019-03-24T08:21:52.975Z,5.10
2019-03-24T08:24:21.983Z,5.67
2019-03-24T08:26:52.719Z,4.40
2019-03-24T08:29:20.977Z,5.33
2019-03-24T08:31:50.539Z,6.00
2019-03-24T08:34:18.489Z,4.80
2019-03-24T08:36:47.230Z,5.13
2019-03-24T08:39:15.158Z,5.60
2019-03-24T08:41:43.110Z,4.97
2019-03-24T08:44:11.286Z,5.60
2019-03-24T08:46:39.365Z,5.40
2019-03-24T08:49:07.324Z,4.80
2019-03-24T08:51:35.264Z,3.80
2019-03-24T08:54:03.339Z,3.47
2019-03-24T08:56:32.431Z,3.70
2019-03-24T08:59:00.522Z,4.57
2019-03-24T09:01:28.626Z,3.40
2019-03-24T09:03:56.523Z,4.03
2019-03-24T09:06:24.527Z,5.30
2019-03-24T09:08:53.209Z,5.10
2019-03-24T09:11:30.867Z,4.30
2019-03-24T09:13:51.922Z,5.70
2019-03-24T09:16:20.117Z,6.07
2019-03-24T09:18:53.133Z,5.17
2019-03-24T09:21:21.274Z,6.57
2019-03-24T09:23:49.144Z,6.13
2019-03-24T09:26:17.169Z,5.57
2019-03-24T09:28:45.108Z,6.20
2019-03-24T09:31:13.457Z,7.00
2019-03-24T09:33:41.635Z,6.50
2019-03-24T09:36:10.105Z,6.00
2019-03-24T09:38:38.302Z,7.12
2019-03-24T09:41:06.422Z,6.67
2019-03-24T09:43:34.565Z,7.20
2019-03-24T09:46:03.133Z,6.83
2019-03-24T09:48:31.529Z,6.13
2019-03-24T09:50:59.593Z,5.77
2019-03-24T09:53:27.607Z,6.57
2019-03-24T09:55:55.589Z,5.03
2019-03-24T09:58:23.864Z,5.20
2019-03-24T10:00:52.503Z,6.40
2019-03-24T10:03:20.630Z,5.87
2019-03-24T10:05:51.343Z,4.70
2019-03-24T10:08:19.542Z,5.27
2019-03-24T10:10:47.590Z,6.00
2019-03-24T10:13:15.847Z,5.20
2019-03-24T10:15:44.114Z,5.00
2019-03-24T10:18:12.419Z,4.40
2019-03-24T10:20:40.335Z,4.80
2019-03-24T10:23:08.854Z,5.30
2019-03-24T10:25:36.843Z,5.30
2019-03-24T10:28:04.904Z,5.07
2019-03-24T10:30:33.032Z,3.63
2019-03-24T10:33:00.962Z,4.53
2019-03-24T10:35:29.001Z,5.30
2019-03-24T10:37:57.093Z,3.90
2019-03-24T10:40:28.798Z,4.07
2019-03-24T10:42:55.014Z,3.50
2019-03-24T10:45:23.123Z,4.07
2019-03-24T10:47:51.122Z,4.90
2019-03-24T10:50:19.108Z,3.73
2019-03-24T10:52:47.304Z,5.20
2019-03-24T10:55:15.634Z,4.93
2019-03-24T10:57:43.507Z,5.00
2019-03-24T11:00:37.719Z,4.67
2019-03-24T11:03:05.675Z,4.13
2019-03-24T11:05:33.790Z,3.40
2019-03-24T11:08:01.869Z,4.20
2019-03-24T11:10:30.011Z,4.10
2019-03-24T11:12:58.086Z,3.80
2019-03-24T11:15:26.101Z,4.17
2019-03-24T11:17:54.202Z,3.43
2019-03-24T11:20:22.183Z,3.00
2019-03-24T11:22:51.393Z,4.07
2019-03-24T11:25:19.677Z,4.30
2019-03-24T11:27:49.746Z,3.10
2019-03-24T11:30:19.005Z,4.87
2019-03-24T11:32:47.398Z,3.93
2019-03-24T11:35:15.905Z,3.20
2019-03-24T11:37:44.086Z,3.90
2019-03-24T11:40:12.843Z,4.80
2019-03-24T11:42:41.093Z,4.63
2019-03-24T11:45:09.794Z,3.80
2019-03-24T11:47:38.122Z,3.72
2019-03-24T11:50:06.985Z,3.87
2019-03-24T11:52:35.139Z,4.30
2019-03-24T11:55:03.440Z,5.10
2019-03-24T11:57:31.839Z,4.77
2019-03-24T12:00:01.476Z,4.50
2019-03-24T12:02:30.032Z,5.33
2019-03-24T12:04:58.571Z,5.30
2019-03-24T12:07:27.073Z,5.83
2019-03-24T12:09:55.303Z,5.03
2019-03-24T12:12:23.807Z,4.97
2019-03-24T12:14:54.737Z,3.53
2019-03-24T12:17:23.612Z,4.00
2019-03-24T12:19:57.065Z,5.30
2019-03-24T12:22:22.667Z,4.90
2019-03-24T12:24:59.863Z,5.63
2019-03-24T12:27:28.202Z,5.87
2019-03-24T12:29:56.174Z,6.10
2019-03-24T12:32:25.005Z,6.93
2019-03-24T12:34:55.725Z,12.00
2019-03-24T12:37:24.626Z,10.33
2019-03-24T12:39:52.987Z,12.70
2019-03-24T12:42:21.066Z,14.00
2019-03-24T12:44:49.119Z,14.13
2019-03-24T12:47:17.972Z,13.37
2019-03-24T12:49:46.674Z,14.20
2019-03-24T12:52:33.882Z,16.00
2019-03-24T12:55:02.065Z,13.97
2019-03-24T12:57:39.800Z,13.90
2019-03-24T13:00:08.525Z,13.27
2019-03-24T13:02:37.168Z,10.87
2019-03-24T13:05:06.957Z,10.53
2019-03-24T13:07:35.123Z,9.60
2019-03-24T13:10:07.912Z,10.20
2019-03-24T13:12:36.000Z,9.43
2019-03-24T13:15:08.479Z,8.90
2019-03-24T13:17:37.807Z,7.43
2019-03-24T13:20:06.535Z,6.60
2019-03-24T13:22:34.861Z,9.35
2019-03-24T13:25:03.507Z,8.50
2019-03-24T13:27:31.609Z,9.90
2019-03-24T13:29:59.754Z,9.43
2019-03-24T13:32:28.024Z,10.57
2019-03-24T13:34:56.383Z,8.73
2019-03-24T13:37:24.403Z,9.10
2019-03-24T13:39:52.627Z,8.00
2019-03-24T13:42:20.651Z,7.00
2019-03-24T13:44:48.765Z,8.90
2019-03-24T13:47:16.929Z,8.07
2019-03-24T13:49:44.997Z,8.13
2019-03-24T13:52:13.118Z,7.20
2019-03-24T13:54:41.347Z,7.30
2019-03-24T13:57:09.487Z,5.93
2019-03-24T13:59:37.640Z,6.23
2019-03-24T14:02:05.954Z,6.50
2019-03-24T14:04:34.193Z,5.70
2019-03-24T14:07:02.328Z,3.30
2019-03-24T14:09:30.445Z,4.13
2019-03-24T14:12:30.413Z,3.30
2019-03-24T14:15:01.914Z,2.87
2019-03-24T14:17:30.064Z,2.67
2019-03-24T14:19:57.992Z,2.43
2019-03-24T14:22:26.081Z,2.47
2019-03-24T14:24:55.262Z,3.00
2019-03-24T14:27:23.233Z,2.67
2019-03-24T14:29:51.714Z,2.40
2019-03-24T14:32:19.695Z,2.80
2019-03-24T14:34:47.893Z,3.83
2019-03-24T14:37:15.967Z,3.43
2019-03-24T14:39:43.872Z,2.67
2019-03-24T14:42:11.797Z,3.30
2019-03-24T14:44:39.728Z,2.70
2019-03-24T14:47:07.758Z,3.17
2019-03-24T14:49:35.881Z,4.57
2019-03-24T14:52:03.880Z,3.67
2019-03-24T14:54:31.870Z,3.30
2019-03-24T14:56:59.841Z,3.20
2019-03-24T14:59:27.755Z,4.27
2019-03-24T15:01:55.669Z,3.53
2019-03-24T15:04:23.593Z,3.27
2019-03-24T15:06:53.971Z,2.43
2019-03-24T15:09:22.017Z,2.80
2019-03-24T15:11:51.248Z,2.60
2019-03-24T15:14:19.168Z,2.63
2019-03-24T15:16:48.382Z,2.33
2019-03-24T15:19:16.337Z,2.70
2019-03-24T15:21:44.714Z,2.40
2019-03-24T15:24:12.540Z,2.43
2019-03-24T15:26:40.453Z,2.40
2019-03-24T15:29:08.242Z,3.30
2019-03-24T15:31:36.182Z,2.90
2019-03-24T15:34:04.260Z,3.20
2019-03-24T15:36:38.639Z,3.35
2019-03-24T15:39:08.589Z,3.70
2019-03-24T15:41:36.898Z,4.20
2019-03-24T15:44:05.002Z,3.30
2019-03-24T15:46:33.042Z,3.23
2019-03-24T15:49:01.447Z,3.37
2019-03-24T15:51:29.492Z,4.63
2019-03-24T15:53:58.689Z,3.23
2019-03-24T15:56:27.071Z,3.40
2019-03-24T15:58:55.202Z,3.23
2019-03-24T16:01:23.445Z,2.80
2019-03-24T16:03:51.607Z,3.60
2019-03-24T16:06:19.969Z,2.80
2019-03-24T16:08:48.599Z,2.37
2019-03-24T16:11:16.973Z,1.93
2019-03-24T16:13:46.614Z,2.53
2019-03-24T16:16:15.209Z,2.40
2019-03-24T16:18:43.196Z,3.00
2019-03-24T16:21:13.395Z,2.40
2019-03-24T16:23:41.517Z,2.62
2019-03-24T16:26:09.919Z,2.13
2019-03-24T16:28:38.233Z,2.73
2019-03-24T16:31:06.361Z,2.67
2019-03-24T16:33:34.550Z,2.80
2019-03-24T16:36:02.617Z,2.50
2019-03-24T16:38:30.545Z,2.33
2019-03-24T16:41:01.481Z,2.20
2019-03-24T16:43:30.297Z,3.17
2019-03-24T16:45:58.400Z,2.30
2019-03-24T16:48:36.399Z,2.27
2019-03-24T16:50:57.842Z,2.43
2019-03-24T16:53:26.021Z,2.50
2019-03-24T16:55:54.024Z,2.13
2019-03-24T16:58:22.219Z,3.30
2019-03-24T17:00:50.931Z,2.70
2019-03-24T17:03:18.992Z,2.60
2019-03-24T17:05:46.987Z,2.77
2019-03-24T17:08:14.974Z,3.40
2019-03-24T17:10:50.194Z,2.17
2019-03-24T17:13:21.109Z,2.87
2019-03-24T17:15:49.282Z,2.63
2019-03-24T17:18:18.053Z,2.17
2019-03-24T17:20:46.455Z,2.40
2019-03-24T17:23:14.795Z,4.03
2019-03-24T17:25:49.536Z,3.00
2019-03-24T17:28:18.085Z,2.47
2019-03-24T17:30:46.198Z,2.17
2019-03-24T17:33:14.138Z,2.80
2019-03-24T17:35:42.192Z,3.73
2019-03-24T17:38:10.629Z,3.80
2019-03-24T17:40:39.180Z,3.27
2019-03-24T17:43:07.344Z,3.37
2019-03-24T17:45:35.450Z,4.33
2019-03-24T17:48:03.626Z,3.30
2019-03-24T17:50:44.181Z,2.77
2019-03-24T17:53:12.451Z,2.30
2019-03-24T17:55:40.458Z,2.77
2019-03-24T17:58:08.431Z,2.17
2019-03-24T18:00:42.312Z,1.97
2019-03-24T18:03:10.297Z,3.40
2019-03-24T18:05:38.584Z,3.77
2019-03-24T18:08:07.753Z,3.17
2019-03-24T18:10:35.666Z,2.70
2019-03-24T18:13:04.573Z,3.40
2019-03-24T18:15:32.719Z,4.30
2019-03-24T18:18:01.550Z,2.97
2019-03-24T18:20:31.130Z,3.13
2019-03-24T18:22:59.262Z,2.47
2019-03-24T18:25:28.126Z,5.70
2019-03-24T18:27:56.603Z,3.30
2019-03-24T18:30:24.910Z,3.70
2019-03-24T18:32:54.162Z,3.63
2019-03-24T18:35:22.214Z,3.90
2019-03-24T18:37:50.202Z,3.02
2019-03-24T18:40:20.313Z,3.67
2019-03-24T18:42:48.838Z,3.10
2019-03-24T18:45:18.454Z,4.00
2019-03-24T18:47:46.467Z,3.50
2019-03-24T18:50:15.737Z,2.80
2019-03-24T18:52:43.750Z,2.33
2019-03-24T18:55:13.290Z,3.13
2019-03-24T18:57:41.603Z,4.63
2019-03-24T19:00:10.607Z,3.27
2019-03-24T19:02:38.989Z,3.10
2019-03-24T19:05:07.286Z,3.10
2019-03-24T19:07:35.453Z,2.90
2019-03-24T19:10:04.178Z,3.03
2019-03-24T19:12:32.438Z,3.10
2019-03-24T19:15:00.634Z,2.97
2019-03-24T19:17:28.951Z,2.90
2019-03-24T19:19:57.157Z,1.90
2019-03-24T19:22:33.287Z,2.53
2019-03-24T19:24:55.823Z,2.40
2019-03-24T19:27:23.974Z,2.37
2019-03-24T19:29:52.378Z,2.20
2019-03-24T19:32:20.654Z,3.00
2019-03-24T19:34:50.065Z,2.73
2019-03-24T19:37:20.076Z,2.43
2019-03-24T19:39:49.285Z,2.97
2019-03-24T19:42:18.851Z,2.80
2019-03-24T19:44:47.331Z,3.80
2019-03-24T19:47:15.283Z,4.23
2019-03-24T19:49:44.385Z,3.37
2019-03-24T19:52:13.006Z,3.70
2019-03-24T19:54:41.477Z,2.83
2019-03-24T19:57:09.620Z,3.33
2019-03-24T19:59:37.846Z,3.73
2019-03-24T20:02:06.425Z,2.60
2019-03-24T20:04:34.450Z,2.67
2019-03-24T20:07:02.550Z,3.23
2019-03-24T20:09:30.618Z,3.30
2019-03-24T20:11:58.861Z,2.50
2019-03-24T20:14:27.101Z,3.13
2019-03-24T20:16:55.522Z,3.00
2019-03-24T20:19:24.789Z,2.60
2019-03-24T20:21:52.910Z,2.90
2019-03-24T20:24:20.936Z,3.67
2019-03-24T20:26:49.665Z,3.80
2019-03-24T20:29:17.832Z,4.63
2019-03-24T20:31:46.226Z,4.07
2019-03-24T20:34:14.259Z,3.10
2019-03-24T20:36:42.271Z,3.30
2019-03-24T20:39:11.522Z,3.63
2019-03-24T20:41:39.710Z,3.20
2019-03-24T20:44:07.764Z,3.43
2019-03-24T20:46:35.920Z,4.13
2019-03-24T20:49:05.120Z,4.00
2019-03-24T20:51:33.116Z,4.43
2019-03-24T20:54:01.215Z,4.60
2019-03-24T20:56:29.426Z,5.30
2019-03-24T20:58:58.398Z,3.63
2019-03-24T21:01:26.470Z,4.40
2019-03-24T21:03:54.706Z,3.63
2019-03-24T21:06:22.930Z,4.17
2019-03-24T21:08:51.548Z,4.60
2019-03-24T21:11:19.796Z,3.60
2019-03-24T21:13:47.937Z,4.40
2019-03-24T21:16:16.404Z,4.23
2019-03-24T21:18:44.434Z,5.63
2019-03-24T21:21:12.499Z,4.70
2019-03-24T21:23:40.768Z,5.40
2019-03-24T21:26:11.098Z,5.20
2019-03-24T21:28:38.866Z,5.33
2019-03-24T21:31:06.946Z,4.50
2019-03-24T21:33:35.416Z,4.60
2019-03-24T21:36:03.651Z,4.40
2019-03-24T21:38:51.570Z,5.30
2019-03-24T21:41:20.096Z,5.10
2019-03-24T21:43:48.357Z,4.80
2019-03-24T21:46:16.336Z,5.17
2019-03-24T21:48:44.816Z,4.63
2019-03-24T21:51:13.344Z,5.10
2019-03-24T21:53:41.658Z,5.00
2019-03-24T21:56:14.138Z,5.10
2019-03-24T21:58:44.292Z,5.53
2019-03-24T22:01:13.482Z,5.40
2019-03-24T22:03:41.871Z,5.73
2019-03-24T22:06:10.290Z,5.17
2019-03-24T22:08:38.472Z,5.37
2019-03-24T22:11:06.481Z,5.10
2019-03-24T22:13:34.776Z,5.50
2019-03-24T22:16:02.858Z,5.10
2019-03-24T22:18:30.966Z,5.13
2019-03-24T22:20:59.199Z,4.80
2019-03-24T22:23:27.246Z,5.40
2019-03-24T22:25:55.559Z,5.13
2019-03-24T22:28:23.571Z,6.35
2019-03-24T22:30:55.993Z,4.90
2019-03-24T22:33:24.186Z,5.80
2019-03-24T22:35:52.667Z,4.63
2019-03-24T22:38:20.750Z,4.63
2019-03-24T22:40:48.639Z,4.47
2019-03-24T22:43:16.706Z,4.23
2019-03-24T22:45:44.799Z,4.50
2019-03-24T22:48:12.741Z,5.03
2019-03-24T22:50:40.907Z,4.23
2019-03-24T22:53:08.958Z,4.40
2019-03-24T22:55:38.045Z,4.70
2019-03-24T22:58:06.072Z,4.27
2019-03-24T23:00:52.386Z,4.40
2019-03-24T23:03:21.015Z,4.47
2019-03-24T23:05:49.889Z,3.80
2019-03-24T23:08:17.823Z,4.17
2019-03-24T23:11:05.111Z,4.03
2019-03-24T23:13:33.123Z,4.53
2019-03-24T23:16:01.336Z,5.63
2019-03-24T23:18:29.670Z,4.10
2019-03-24T23:20:57.713Z,4.60
2019-03-24T23:23:26.887Z,4.80
2019-03-24T23:25:56.259Z,4.10
2019-03-24T23:28:24.232Z,5.30
2019-03-24T23:30:52.185Z,4.47
2019-03-24T23:33:20.178Z,4.20
2019-03-24T23:35:48.287Z,4.17
2019-03-24T23:38:16.201Z,4.00
2019-03-24T23:40:44.306Z,4.70
2019-03-24T23:43:12.314Z,4.63
2019-03-24T23:45:40.271Z,4.20
2019-03-24T23:48:08.271Z,5.00
2019-03-24T23:50:36.173Z,3.70
2019-03-24T23:53:04.127Z,4.60
2019-03-24T23:55:32.052Z,3.90
2019-03-24T23:58:00.345Z,4.37
